sensor_id;sensor_type;location;lat;lon;timestamp;P1;durP1;ratioP1;P2;durP2;ratioP2
18520;SDS011;9390;51.244;6.982;2023-04-24T00:00:09;1.88;;;1.13;;
18520;SDS011;9390;51.244;6.982;2023-04-24T00:02:42;2.17;;;1.20;;
18520;SDS011;9390;51.244;6.982;2023-04-24T00:05:16;1.58;;;1.10;;
18520;SDS011;9390;51.244;6.982;2023-04-24T00:07:48;2.58;;;1.20;;
18520;SDS011;9390;51.244;6.982;2023-04-24T00:10:22;2.08;;;1.27;;
18520;SDS011;9390;51.244;6.982;2023-04-24T00:12:54;2.90;;;1.38;;
18520;SDS011;9390;51.244;6.982;2023-04-24T00:15:26;5.00;;;1.50;;
18520;SDS011;9390;51.244;6.982;2023-04-24T00:17:58;2.60;;;1.20;;
18520;SDS011;9390;51.244;6.982;2023-04-24T00:20:31;2.55;;;1.10;;
18520;SDS011;9390;51.244;6.982;2023-04-24T00:23:03;2.75;;;1.50;;
18520;SDS011;9390;51.244;6.982;2023-04-24T00:25:34;4.05;;;1.38;;
18520;SDS011;9390;51.244;6.982;2023-04-24T00:28:06;2.72;;;1.40;;
18520;SDS011;9390;51.244;6.982;2023-04-24T00:30:38;5.45;;;1.60;;
18520;SDS011;9390;51.244;6.982;2023-04-24T00:33:11;2.38;;;1.33;;
18520;SDS011;9390;51.244;6.982;2023-04-24T00:35:42;2.45;;;1.45;;
18520;SDS011;9390;51.244;6.982;2023-04-24T00:38:13;2.22;;;1.40;;
18520;SDS011;9390;51.244;6.982;2023-04-24T00:40:45;3.88;;;1.70;;
18520;SDS011;9390;51.244;6.982;2023-04-24T00:43:17;1.85;;;1.20;;
18520;SDS011;9390;51.244;6.982;2023-04-24T00:45:50;4.80;;;1.90;;
18520;SDS011;9390;51.244;6.982;2023-04-24T00:48:21;7.50;;;1.85;;
18520;SDS011;9390;51.244;6.982;2023-04-24T00:50:54;3.22;;;1.20;;
18520;SDS011;9390;51.244;6.982;2023-04-24T00:53:25;2.67;;;1.45;;
18520;SDS011;9390;51.244;6.982;2023-04-24T00:55:57;3.58;;;1.70;;
18520;SDS011;9390;51.244;6.982;2023-04-24T00:58:28;4.03;;;1.73;;
18520;SDS011;9390;51.244;6.982;2023-04-24T01:01:02;3.13;;;1.58;;
18520;SDS011;9390;51.244;6.982;2023-04-24T01:03:36;3.95;;;1.75;;
18520;SDS011;9390;51.244;6.982;2023-04-24T01:06:08;5.13;;;1.77;;
18520;SDS011;9390;51.244;6.982;2023-04-24T01:08:40;5.45;;;1.92;;
18520;SDS011;9390;51.244;6.982;2023-04-24T01:11:12;3.38;;;1.60;;
18520;SDS011;9390;51.244;6.982;2023-04-24T01:13:44;2.75;;;1.58;;
18520;SDS011;9390;51.244;6.982;2023-04-24T01:16:17;4.78;;;1.75;;
18520;SDS011;9390;51.244;6.982;2023-04-24T01:18:50;4.45;;;2.10;;
18520;SDS011;9390;51.244;6.982;2023-04-24T01:21:22;4.30;;;1.90;;
18520;SDS011;9390;51.244;6.982;2023-04-24T01:23:56;4.20;;;1.70;;
18520;SDS011;9390;51.244;6.982;2023-04-24T01:26:27;4.13;;;1.95;;
18520;SDS011;9390;51.244;6.982;2023-04-24T01:28:59;4.50;;;1.90;;
18520;SDS011;9390;51.244;6.982;2023-04-24T01:31:30;5.63;;;2.40;;
18520;SDS011;9390;51.244;6.982;2023-04-24T01:34:02;5.38;;;2.40;;
18520;SDS011;9390;51.244;6.982;2023-04-24T01:36:33;7.45;;;2.60;;
18520;SDS011;9390;51.244;6.982;2023-04-24T01:39:07;6.95;;;3.20;;
18520;SDS011;9390;51.244;6.982;2023-04-24T01:41:39;7.05;;;3.08;;
18520;SDS011;9390;51.244;6.982;2023-04-24T01:44:10;8.38;;;3.72;;
18520;SDS011;9390;51.244;6.982;2023-04-24T01:46:41;8.02;;;3.75;;
18520;SDS011;9390;51.244;6.982;2023-04-24T01:49:13;11.13;;;4.60;;
18520;SDS011;9390;51.244;6.982;2023-04-24T01:51:45;8.40;;;4.33;;
18520;SDS011;9390;51.244;6.982;2023-04-24T01:54:18;9.77;;;4.22;;
18520;SDS011;9390;51.244;6.982;2023-04-24T01:56:50;8.70;;;4.30;;
18520;SDS011;9390;51.244;6.982;2023-04-24T01:59:22;10.23;;;4.30;;
18520;SDS011;9390;51.244;6.982;2023-04-24T02:01:54;9.82;;;4.72;;
18520;SDS011;9390;51.244;6.982;2023-04-24T02:04:25;9.93;;;4.45;;
18520;SDS011;9390;51.244;6.982;2023-04-24T02:06:57;12.15;;;4.75;;
18520;SDS011;9390;51.244;6.982;2023-04-24T02:09:30;9.45;;;4.28;;
18520;SDS011;9390;51.244;6.982;2023-04-24T02:12:01;13.57;;;4.82;;
18520;SDS011;9390;51.244;6.982;2023-04-24T02:14:32;8.18;;;3.95;;
18520;SDS011;9390;51.244;6.982;2023-04-24T02:17:04;9.45;;;4.47;;
18520;SDS011;9390;51.244;6.982;2023-04-24T02:19:36;9.50;;;4.18;;
18520;SDS011;9390;51.244;6.982;2023-04-24T02:22:08;12.65;;;5.45;;
18520;SDS011;9390;51.244;6.982;2023-04-24T02:24:41;11.82;;;5.18;;
18520;SDS011;9390;51.244;6.982;2023-04-24T02:27:13;13.57;;;5.75;;
18520;SDS011;9390;51.244;6.982;2023-04-24T02:29:44;10.70;;;5.53;;
18520;SDS011;9390;51.244;6.982;2023-04-24T02:32:16;10.68;;;5.30;;
18520;SDS011;9390;51.244;6.982;2023-04-24T02:34:47;11.23;;;5.53;;
18520;SDS011;9390;51.244;6.982;2023-04-24T02:37:18;10.50;;;5.68;;
18520;SDS011;9390;51.244;6.982;2023-04-24T02:39:51;12.85;;;5.47;;
18520;SDS011;9390;51.244;6.982;2023-04-24T02:42:22;14.25;;;6.50;;
18520;SDS011;9390;51.244;6.982;2023-04-24T02:44:54;16.55;;;6.13;;
18520;SDS011;9390;51.244;6.982;2023-04-24T02:47:25;14.73;;;6.68;;
18520;SDS011;9390;51.244;6.982;2023-04-24T02:49:57;12.77;;;6.75;;
18520;SDS011;9390;51.244;6.982;2023-04-24T02:52:28;15.13;;;6.10;;
18520;SDS011;9390;51.244;6.982;2023-04-24T02:55:01;12.25;;;6.53;;
18520;SDS011;9390;51.244;6.982;2023-04-24T02:57:32;15.48;;;6.93;;
18520;SDS011;9390;51.244;6.982;2023-04-24T03:00:04;14.13;;;6.60;;
18520;SDS011;9390;51.244;6.982;2023-04-24T03:02:37;13.68;;;7.20;;
18520;SDS011;9390;51.244;6.982;2023-04-24T03:05:08;15.63;;;7.28;;
18520;SDS011;9390;51.244;6.982;2023-04-24T03:07:42;16.92;;;7.10;;
18520;SDS011;9390;51.244;6.982;2023-04-24T03:10:15;14.07;;;7.37;;
18520;SDS011;9390;51.244;6.982;2023-04-24T03:12:46;16.73;;;8.27;;
18520;SDS011;9390;51.244;6.982;2023-04-24T03:15:18;16.17;;;7.55;;
18520;SDS011;9390;51.244;6.982;2023-04-24T03:17:49;16.10;;;7.78;;
18520;SDS011;9390;51.244;6.982;2023-04-24T03:20:22;16.88;;;7.53;;
18520;SDS011;9390;51.244;6.982;2023-04-24T03:22:54;15.82;;;8.35;;
18520;SDS011;9390;51.244;6.982;2023-04-24T03:25:27;15.75;;;7.97;;
18520;SDS011;9390;51.244;6.982;2023-04-24T03:27:59;19.17;;;8.00;;
18520;SDS011;9390;51.244;6.982;2023-04-24T03:30:30;16.45;;;7.65;;
18520;SDS011;9390;51.244;6.982;2023-04-24T03:33:01;17.00;;;7.32;;
18520;SDS011;9390;51.244;6.982;2023-04-24T03:35:33;15.95;;;7.57;;
18520;SDS011;9390;51.244;6.982;2023-04-24T03:38:04;14.65;;;7.32;;
18520;SDS011;9390;51.244;6.982;2023-04-24T03:40:37;17.40;;;7.13;;
18520;SDS011;9390;51.244;6.982;2023-04-24T03:43:08;11.60;;;6.35;;
18520;SDS011;9390;51.244;6.982;2023-04-24T03:45:40;16.58;;;7.63;;
18520;SDS011;9390;51.244;6.982;2023-04-24T03:48:11;17.33;;;8.00;;
18520;SDS011;9390;51.244;6.982;2023-04-24T03:50:43;12.77;;;7.15;;
18520;SDS011;9390;51.244;6.982;2023-04-24T03:53:14;16.17;;;7.40;;
18520;SDS011;9390;51.244;6.982;2023-04-24T03:55:51;16.38;;;7.88;;
18520;SDS011;9390;51.244;6.982;2023-04-24T03:58:22;18.85;;;7.97;;
18520;SDS011;9390;51.244;6.982;2023-04-24T04:00:53;13.38;;;7.38;;
18520;SDS011;9390;51.244;6.982;2023-04-24T04:05:58;16.80;;;7.85;;
18520;SDS011;9390;51.244;6.982;2023-04-24T04:08:29;16.92;;;7.95;;
18520;SDS011;9390;51.244;6.982;2023-04-24T04:11:02;15.00;;;7.85;;
18520;SDS011;9390;51.244;6.982;2023-04-24T04:13:33;15.40;;;7.95;;
18520;SDS011;9390;51.244;6.982;2023-04-24T04:16:05;15.40;;;7.65;;
18520;SDS011;9390;51.244;6.982;2023-04-24T04:18:36;15.25;;;7.78;;
18520;SDS011;9390;51.244;6.982;2023-04-24T04:21:08;17.45;;;9.10;;
18520;SDS011;9390;51.244;6.982;2023-04-24T04:23:39;20.35;;;9.18;;
18520;SDS011;9390;51.244;6.982;2023-04-24T04:26:13;14.30;;;7.70;;
18520;SDS011;9390;51.244;6.982;2023-04-24T04:28:44;16.52;;;7.70;;
18520;SDS011;9390;51.244;6.982;2023-04-24T04:31:16;18.88;;;9.35;;
18520;SDS011;9390;51.244;6.982;2023-04-24T04:33:47;14.10;;;7.13;;
18520;SDS011;9390;51.244;6.982;2023-04-24T04:36:19;17.00;;;8.15;;
18520;SDS011;9390;51.244;6.982;2023-04-24T04:38:50;16.88;;;7.80;;
18520;SDS011;9390;51.244;6.982;2023-04-24T04:41:23;15.52;;;7.45;;
18520;SDS011;9390;51.244;6.982;2023-04-24T04:43:55;14.57;;;7.97;;
18520;SDS011;9390;51.244;6.982;2023-04-24T04:46:28;17.13;;;7.45;;
18520;SDS011;9390;51.244;6.982;2023-04-24T04:49:02;18.42;;;7.50;;
18520;SDS011;9390;51.244;6.982;2023-04-24T04:51:34;20.38;;;8.25;;
18520;SDS011;9390;51.244;6.982;2023-04-24T04:54:05;22.15;;;8.05;;
18520;SDS011;9390;51.244;6.982;2023-04-24T04:56:39;18.17;;;7.80;;
18520;SDS011;9390;51.244;6.982;2023-04-24T04:59:10;16.27;;;7.70;;
18520;SDS011;9390;51.244;6.982;2023-04-24T05:01:42;16.98;;;8.20;;
18520;SDS011;9390;51.244;6.982;2023-04-24T05:04:13;18.23;;;7.43;;
18520;SDS011;9390;51.244;6.982;2023-04-24T05:06:45;14.70;;;8.02;;
18520;SDS011;9390;51.244;6.982;2023-04-24T05:09:17;16.80;;;8.38;;
18520;SDS011;9390;51.244;6.982;2023-04-24T05:11:50;19.08;;;8.32;;
18520;SDS011;9390;51.244;6.982;2023-04-24T05:14:21;18.67;;;8.38;;
18520;SDS011;9390;51.244;6.982;2023-04-24T05:16:52;15.40;;;7.60;;
18520;SDS011;9390;51.244;6.982;2023-04-24T05:19:24;18.40;;;8.13;;
18520;SDS011;9390;51.244;6.982;2023-04-24T05:21:55;19.23;;;7.55;;
18520;SDS011;9390;51.244;6.982;2023-04-24T05:24:27;16.92;;;7.82;;
18520;SDS011;9390;51.244;6.982;2023-04-24T05:26:59;20.05;;;7.60;;
18520;SDS011;9390;51.244;6.982;2023-04-24T05:29:32;17.92;;;7.78;;
18520;SDS011;9390;51.244;6.982;2023-04-24T05:32:04;15.40;;;7.25;;
18520;SDS011;9390;51.244;6.982;2023-04-24T05:34:35;16.73;;;7.03;;
18520;SDS011;9390;51.244;6.982;2023-04-24T05:37:06;13.68;;;6.95;;
18520;SDS011;9390;51.244;6.982;2023-04-24T05:39:39;13.63;;;6.57;;
18520;SDS011;9390;51.244;6.982;2023-04-24T05:42:13;10.93;;;5.85;;
18520;SDS011;9390;51.244;6.982;2023-04-24T05:44:44;13.43;;;6.20;;
18520;SDS011;9390;51.244;6.982;2023-04-24T05:47:15;13.32;;;6.18;;
18520;SDS011;9390;51.244;6.982;2023-04-24T05:49:51;14.05;;;6.25;;
18520;SDS011;9390;51.244;6.982;2023-04-24T05:52:23;12.80;;;6.22;;
18520;SDS011;9390;51.244;6.982;2023-04-24T05:54:54;13.60;;;6.47;;
18520;SDS011;9390;51.244;6.982;2023-04-24T05:57:27;13.70;;;6.65;;
18520;SDS011;9390;51.244;6.982;2023-04-24T05:59:58;16.98;;;7.45;;
18520;SDS011;9390;51.244;6.982;2023-04-24T06:02:30;15.32;;;7.20;;
18520;SDS011;9390;51.244;6.982;2023-04-24T06:05:02;15.43;;;7.55;;
18520;SDS011;9390;51.244;6.982;2023-04-24T06:07:34;17.33;;;7.63;;
18520;SDS011;9390;51.244;6.982;2023-04-24T06:10:06;13.93;;;7.25;;
18520;SDS011;9390;51.244;6.982;2023-04-24T06:12:39;16.98;;;7.90;;
18520;SDS011;9390;51.244;6.982;2023-04-24T06:15:11;15.40;;;8.70;;
18520;SDS011;9390;51.244;6.982;2023-04-24T06:17:42;17.05;;;7.82;;
18520;SDS011;9390;51.244;6.982;2023-04-24T06:20:14;16.05;;;7.72;;
18520;SDS011;9390;51.244;6.982;2023-04-24T06:22:45;18.25;;;8.15;;
18520;SDS011;9390;51.244;6.982;2023-04-24T06:25:17;18.00;;;7.57;;
18520;SDS011;9390;51.244;6.982;2023-04-24T06:27:50;16.73;;;8.73;;
18520;SDS011;9390;51.244;6.982;2023-04-24T06:30:21;14.15;;;7.25;;
18520;SDS011;9390;51.244;6.982;2023-04-24T06:32:53;14.75;;;7.20;;
18520;SDS011;9390;51.244;6.982;2023-04-24T06:35:24;16.40;;;8.18;;
18520;SDS011;9390;51.244;6.982;2023-04-24T06:37:56;14.77;;;6.30;;
18520;SDS011;9390;51.244;6.982;2023-04-24T06:40:27;11.02;;;6.65;;
18520;SDS011;9390;51.244;6.982;2023-04-24T06:43:00;13.77;;;6.13;;
18520;SDS011;9390;51.244;6.982;2023-04-24T06:45:32;12.65;;;5.95;;
18520;SDS011;9390;51.244;6.982;2023-04-24T06:48:04;13.85;;;7.15;;
18520;SDS011;9390;51.244;6.982;2023-04-24T06:50:35;16.13;;;6.50;;
18520;SDS011;9390;51.244;6.982;2023-04-24T06:53:07;14.55;;;6.63;;
18520;SDS011;9390;51.244;6.982;2023-04-24T06:55:38;14.77;;;5.72;;
18520;SDS011;9390;51.244;6.982;2023-04-24T06:58:11;10.52;;;5.45;;
18520;SDS011;9390;51.244;6.982;2023-04-24T07:00:43;12.50;;;5.63;;
18520;SDS011;9390;51.244;6.982;2023-04-24T07:03:14;11.95;;;6.10;;
18520;SDS011;9390;51.244;6.982;2023-04-24T07:05:45;12.73;;;5.78;;
18520;SDS011;9390;51.244;6.982;2023-04-24T07:08:17;12.75;;;6.05;;
18520;SDS011;9390;51.244;6.982;2023-04-24T07:10:50;14.10;;;6.22;;
18520;SDS011;9390;51.244;6.982;2023-04-24T07:13:23;12.27;;;4.82;;
18520;SDS011;9390;51.244;6.982;2023-04-24T07:15:54;11.55;;;5.65;;
18520;SDS011;9390;51.244;6.982;2023-04-24T07:18:26;11.30;;;4.78;;
18520;SDS011;9390;51.244;6.982;2023-04-24T07:20:57;13.95;;;5.90;;
18520;SDS011;9390;51.244;6.982;2023-04-24T07:23:29;12.10;;;4.75;;
18520;SDS011;9390;51.244;6.982;2023-04-24T07:26:00;13.57;;;4.90;;
18520;SDS011;9390;51.244;6.982;2023-04-24T07:28:33;14.43;;;4.85;;
18520;SDS011;9390;51.244;6.982;2023-04-24T07:31:05;10.52;;;5.40;;
18520;SDS011;9390;51.244;6.982;2023-04-24T07:33:36;14.07;;;4.95;;
18520;SDS011;9390;51.244;6.982;2023-04-24T07:36:08;10.63;;;5.20;;
18520;SDS011;9390;51.244;6.982;2023-04-24T07:38:45;9.32;;;4.97;;
18520;SDS011;9390;51.244;6.982;2023-04-24T07:41:17;11.07;;;4.07;;
18520;SDS011;9390;51.244;6.982;2023-04-24T07:43:49;8.88;;;4.15;;
18520;SDS011;9390;51.244;6.982;2023-04-24T07:46:21;11.13;;;4.45;;
18520;SDS011;9390;51.244;6.982;2023-04-24T07:48:53;7.13;;;3.33;;
18520;SDS011;9390;51.244;6.982;2023-04-24T07:51:24;7.40;;;3.08;;
18520;SDS011;9390;51.244;6.982;2023-04-24T07:53:57;4.53;;;2.30;;
18520;SDS011;9390;51.244;6.982;2023-04-24T07:56:28;5.22;;;2.30;;
18520;SDS011;9390;51.244;6.982;2023-04-24T07:59:02;3.10;;;1.60;;
18520;SDS011;9390;51.244;6.982;2023-04-24T08:01:33;2.80;;;1.35;;
18520;SDS011;9390;51.244;6.982;2023-04-24T08:04:05;2.60;;;1.40;;
18520;SDS011;9390;51.244;6.982;2023-04-24T08:06:36;1.10;;;1.00;;
18520;SDS011;9390;51.244;6.982;2023-04-24T08:09:08;1.25;;;0.90;;
18520;SDS011;9390;51.244;6.982;2023-04-24T08:11:39;3.33;;;1.30;;
18520;SDS011;9390;51.244;6.982;2023-04-24T08:14:12;2.05;;;1.17;;
18520;SDS011;9390;51.244;6.982;2023-04-24T08:16:44;6.63;;;1.50;;
18520;SDS011;9390;51.244;6.982;2023-04-24T08:19:16;3.67;;;1.13;;
18520;SDS011;9390;51.244;6.982;2023-04-24T08:21:48;2.15;;;1.20;;
18520;SDS011;9390;51.244;6.982;2023-04-24T08:24:19;2.38;;;1.30;;
18520;SDS011;9390;51.244;6.982;2023-04-24T08:26:50;2.08;;;1.10;;
18520;SDS011;9390;51.244;6.982;2023-04-24T08:29:25;2.50;;;1.20;;
18520;SDS011;9390;51.244;6.982;2023-04-24T08:31:56;3.88;;;1.52;;
18520;SDS011;9390;51.244;6.982;2023-04-24T08:34:28;3.67;;;1.60;;
18520;SDS011;9390;51.244;6.982;2023-04-24T08:36:59;3.05;;;1.65;;
18520;SDS011;9390;51.244;6.982;2023-04-24T08:39:31;4.78;;;1.90;;
18520;SDS011;9390;51.244;6.982;2023-04-24T08:42:03;3.22;;;1.63;;
18520;SDS011;9390;51.244;6.982;2023-04-24T08:44:39;8.60;;;2.25;;
18520;SDS011;9390;51.244;6.982;2023-04-24T08:47:11;3.60;;;1.85;;
18520;SDS011;9390;51.244;6.982;2023-04-24T08:49:42;5.10;;;2.30;;
18520;SDS011;9390;51.244;6.982;2023-04-24T08:52:15;5.75;;;2.25;;
18520;SDS011;9390;51.244;6.982;2023-04-24T08:54:47;7.10;;;2.33;;
18520;SDS011;9390;51.244;6.982;2023-04-24T08:57:18;4.60;;;2.00;;
18520;SDS011;9390;51.244;6.982;2023-04-24T08:59:51;4.45;;;2.40;;
18520;SDS011;9390;51.244;6.982;2023-04-24T09:02:23;7.30;;;2.38;;
18520;SDS011;9390;51.244;6.982;2023-04-24T09:04:55;7.32;;;2.88;;
18520;SDS011;9390;51.244;6.982;2023-04-24T09:07:26;6.38;;;2.78;;
18520;SDS011;9390;51.244;6.982;2023-04-24T09:09:58;8.07;;;3.38;;
18520;SDS011;9390;51.244;6.982;2023-04-24T09:12:30;10.00;;;3.22;;
18520;SDS011;9390;51.244;6.982;2023-04-24T09:15:03;7.53;;;2.72;;
18520;SDS011;9390;51.244;6.982;2023-04-24T09:17:35;7.15;;;3.13;;
18520;SDS011;9390;51.244;6.982;2023-04-24T09:20:07;7.82;;;3.58;;
18520;SDS011;9390;51.244;6.982;2023-04-24T09:22:39;10.15;;;3.50;;
18520;SDS011;9390;51.244;6.982;2023-04-24T09:25:11;8.05;;;3.55;;
18520;SDS011;9390;51.244;6.982;2023-04-24T09:27:43;15.05;;;4.45;;
18520;SDS011;9390;51.244;6.982;2023-04-24T09:30:17;10.57;;;3.42;;
18520;SDS011;9390;51.244;6.982;2023-04-24T09:32:58;8.70;;;3.75;;
18520;SDS011;9390;51.244;6.982;2023-04-24T09:35:41;11.07;;;4.45;;
18520;SDS011;9390;51.244;6.982;2023-04-24T09:38:13;14.90;;;4.45;;
18520;SDS011;9390;51.244;6.982;2023-04-24T09:40:45;11.25;;;4.40;;
18520;SDS011;9390;51.244;6.982;2023-04-24T09:43:16;9.75;;;4.93;;
18520;SDS011;9390;51.244;6.982;2023-04-24T09:45:49;11.32;;;4.60;;
18520;SDS011;9390;51.244;6.982;2023-04-24T09:48:20;8.25;;;4.22;;
18520;SDS011;9390;51.244;6.982;2023-04-24T09:51:01;14.32;;;5.05;;
18520;SDS011;9390;51.244;6.982;2023-04-24T09:53:34;10.52;;;4.25;;
18520;SDS011;9390;51.244;6.982;2023-04-24T09:56:06;14.55;;;5.32;;
18520;SDS011;9390;51.244;6.982;2023-04-24T09:58:38;11.20;;;4.82;;
18520;SDS011;9390;51.244;6.982;2023-04-24T10:01:11;12.68;;;5.60;;
18520;SDS011;9390;51.244;6.982;2023-04-24T10:03:43;15.13;;;5.93;;
18520;SDS011;9390;51.244;6.982;2023-04-24T10:06:15;17.02;;;5.95;;
18520;SDS011;9390;51.244;6.982;2023-04-24T10:08:46;14.23;;;5.82;;
18520;SDS011;9390;51.244;6.982;2023-04-24T10:11:20;14.38;;;5.55;;
18520;SDS011;9390;51.244;6.982;2023-04-24T10:13:52;15.45;;;6.22;;
18520;SDS011;9390;51.244;6.982;2023-04-24T10:16:24;17.92;;;5.68;;
18520;SDS011;9390;51.244;6.982;2023-04-24T10:18:58;19.58;;;7.00;;
18520;SDS011;9390;51.244;6.982;2023-04-24T10:21:30;14.98;;;5.85;;
18520;SDS011;9390;51.244;6.982;2023-04-24T10:24:02;16.73;;;6.82;;
18520;SDS011;9390;51.244;6.982;2023-04-24T10:26:34;21.55;;;7.03;;
18520;SDS011;9390;51.244;6.982;2023-04-24T10:29:07;17.80;;;6.30;;
18520;SDS011;9390;51.244;6.982;2023-04-24T10:31:41;16.60;;;6.70;;
18520;SDS011;9390;51.244;6.982;2023-04-24T10:34:15;18.05;;;6.93;;
18520;SDS011;9390;51.244;6.982;2023-04-24T10:36:48;12.40;;;5.60;;
18520;SDS011;9390;51.244;6.982;2023-04-24T10:39:22;13.88;;;6.00;;
18520;SDS011;9390;51.244;6.982;2023-04-24T10:41:54;15.38;;;6.35;;
18520;SDS011;9390;51.244;6.982;2023-04-24T10:44:27;13.77;;;5.25;;
18520;SDS011;9390;51.244;6.982;2023-04-24T10:47:08;15.60;;;5.70;;
18520;SDS011;9390;51.244;6.982;2023-04-24T10:49:43;14.43;;;4.32;;
18520;SDS011;9390;51.244;6.982;2023-04-24T10:52:15;10.52;;;4.88;;
18520;SDS011;9390;51.244;6.982;2023-04-24T10:54:46;13.88;;;5.88;;
18520;SDS011;9390;51.244;6.982;2023-04-24T10:57:25;10.20;;;4.90;;
18520;SDS011;9390;51.244;6.982;2023-04-24T11:00:10;13.30;;;6.30;;
18520;SDS011;9390;51.244;6.982;2023-04-24T11:02:47;16.58;;;5.85;;
18520;SDS011;9390;51.244;6.982;2023-04-24T11:05:21;13.75;;;5.57;;
18520;SDS011;9390;51.244;6.982;2023-04-24T11:10:45;15.45;;;5.78;;
18520;SDS011;9390;51.244;6.982;2023-04-24T11:13:17;20.30;;;7.32;;
18520;SDS011;9390;51.244;6.982;2023-04-24T11:18:44;21.00;;;8.20;;
18520;SDS011;9390;51.244;6.982;2023-04-24T11:21:20;22.20;;;8.80;;
18520;SDS011;9390;51.244;6.982;2023-04-24T11:23:51;21.23;;;9.25;;
18520;SDS011;9390;51.244;6.982;2023-04-24T11:26:24;16.20;;;8.60;;
18520;SDS011;9390;51.244;6.982;2023-04-24T11:29:06;25.85;;;10.52;;
18520;SDS011;9390;51.244;6.982;2023-04-24T11:31:38;21.85;;;8.15;;
18520;SDS011;9390;51.244;6.982;2023-04-24T11:34:12;25.73;;;8.25;;
18520;SDS011;9390;51.244;6.982;2023-04-24T11:36:44;22.65;;;7.40;;
18520;SDS011;9390;51.244;6.982;2023-04-24T11:39:16;54.90;;;11.60;;
18520;SDS011;9390;51.244;6.982;2023-04-24T11:41:48;18.77;;;8.00;;
18520;SDS011;9390;51.244;6.982;2023-04-24T11:44:20;18.33;;;6.57;;
18520;SDS011;9390;51.244;6.982;2023-04-24T11:46:51;17.98;;;6.25;;
18520;SDS011;9390;51.244;6.982;2023-04-24T11:49:24;12.88;;;5.68;;
18520;SDS011;9390;51.244;6.982;2023-04-24T11:51:55;16.40;;;6.47;;
18520;SDS011;9390;51.244;6.982;2023-04-24T11:54:27;12.98;;;5.68;;
18520;SDS011;9390;51.244;6.982;2023-04-24T11:56:58;20.10;;;6.90;;
18520;SDS011;9390;51.244;6.982;2023-04-24T11:59:29;17.73;;;6.50;;
18520;SDS011;9390;51.244;6.982;2023-04-24T12:02:01;19.95;;;6.72;;
18520;SDS011;9390;51.244;6.982;2023-04-24T12:04:40;14.65;;;5.38;;
18520;SDS011;9390;51.244;6.982;2023-04-24T12:07:12;19.15;;;5.22;;
18520;SDS011;9390;51.244;6.982;2023-04-24T12:09:44;20.50;;;5.90;;
18520;SDS011;9390;51.244;6.982;2023-04-24T12:12:16;30.33;;;7.00;;
18520;SDS011;9390;51.244;6.982;2023-04-24T12:14:48;16.25;;;5.30;;
18520;SDS011;9390;51.244;6.982;2023-04-24T12:17:24;22.07;;;6.10;;
18520;SDS011;9390;51.244;6.982;2023-04-24T12:19:58;25.17;;;6.47;;
18520;SDS011;9390;51.244;6.982;2023-04-24T12:22:42;14.35;;;5.05;;
18520;SDS011;9390;51.244;6.982;2023-04-24T12:25:16;14.63;;;5.47;;
18520;SDS011;9390;51.244;6.982;2023-04-24T12:27:52;19.10;;;5.82;;
18520;SDS011;9390;51.244;6.982;2023-04-24T12:30:26;11.80;;;4.40;;
18520;SDS011;9390;51.244;6.982;2023-04-24T12:32:59;14.52;;;5.35;;
18520;SDS011;9390;51.244;6.982;2023-04-24T12:35:32;17.00;;;4.40;;
18520;SDS011;9390;51.244;6.982;2023-04-24T12:38:05;17.10;;;4.93;;
18520;SDS011;9390;51.244;6.982;2023-04-24T12:40:38;12.13;;;4.30;;
18520;SDS011;9390;51.244;6.982;2023-04-24T12:43:13;10.60;;;4.00;;
18520;SDS011;9390;51.244;6.982;2023-04-24T12:45:45;13.48;;;3.78;;
18520;SDS011;9390;51.244;6.982;2023-04-24T12:48:16;17.05;;;4.40;;
18520;SDS011;9390;51.244;6.982;2023-04-24T12:50:49;14.50;;;5.07;;
18520;SDS011;9390;51.244;6.982;2023-04-24T12:53:20;14.38;;;3.83;;
18520;SDS011;9390;51.244;6.982;2023-04-24T12:55:52;7.70;;;3.08;;
18520;SDS011;9390;51.244;6.982;2023-04-24T12:58:23;8.00;;;3.58;;
18520;SDS011;9390;51.244;6.982;2023-04-24T13:00:55;11.45;;;3.83;;
18520;SDS011;9390;51.244;6.982;2023-04-24T13:03:26;10.25;;;3.78;;
18520;SDS011;9390;51.244;6.982;2023-04-24T13:05:59;8.25;;;2.70;;
18520;SDS011;9390;51.244;6.982;2023-04-24T13:08:31;7.30;;;2.58;;
18520;SDS011;9390;51.244;6.982;2023-04-24T13:11:02;10.55;;;3.05;;
18520;SDS011;9390;51.244;6.982;2023-04-24T13:13:33;8.25;;;2.08;;
18520;SDS011;9390;51.244;6.982;2023-04-24T13:16:05;8.55;;;2.20;;
18520;SDS011;9390;51.244;6.982;2023-04-24T13:18:36;25.08;;;5.90;;
18520;SDS011;9390;51.244;6.982;2023-04-24T13:21:09;47.33;;;6.60;;
18520;SDS011;9390;51.244;6.982;2023-04-24T13:23:40;26.95;;;3.75;;
18520;SDS011;9390;51.244;6.982;2023-04-24T13:26:12;18.83;;;2.60;;
18520;SDS011;9390;51.244;6.982;2023-04-24T13:28:43;12.98;;;3.25;;
18520;SDS011;9390;51.244;6.982;2023-04-24T13:31:15;20.88;;;2.85;;
18520;SDS011;9390;51.244;6.982;2023-04-24T13:33:46;7.35;;;1.63;;
18520;SDS011;9390;51.244;6.982;2023-04-24T13:36:19;21.67;;;3.33;;
18520;SDS011;9390;51.244;6.982;2023-04-24T13:38:50;3.80;;;1.30;;
18520;SDS011;9390;51.244;6.982;2023-04-24T13:41:22;8.57;;;1.98;;
18520;SDS011;9390;51.244;6.982;2023-04-24T13:43:53;3.17;;;1.50;;
18520;SDS011;9390;51.244;6.982;2023-04-24T13:46:25;3.60;;;1.67;;
18520;SDS011;9390;51.244;6.982;2023-04-24T13:48:56;10.88;;;2.17;;
18520;SDS011;9390;51.244;6.982;2023-04-24T13:51:29;7.38;;;1.90;;
18520;SDS011;9390;51.244;6.982;2023-04-24T13:54:01;5.35;;;1.45;;
18520;SDS011;9390;51.244;6.982;2023-04-24T13:56:32;4.60;;;1.55;;
18520;SDS011;9390;51.244;6.982;2023-04-24T13:59:04;5.70;;;1.60;;
18520;SDS011;9390;51.244;6.982;2023-04-24T14:01:35;5.53;;;1.70;;
18520;SDS011;9390;51.244;6.982;2023-04-24T14:04:07;5.85;;;2.05;;
18520;SDS011;9390;51.244;6.982;2023-04-24T14:06:40;4.75;;;1.65;;
18520;SDS011;9390;51.244;6.982;2023-04-24T14:09:11;4.78;;;1.95;;
18520;SDS011;9390;51.244;6.982;2023-04-24T14:11:43;5.05;;;1.67;;
18520;SDS011;9390;51.244;6.982;2023-04-24T14:14:14;5.10;;;1.83;;
18520;SDS011;9390;51.244;6.982;2023-04-24T14:16:45;68.03;;;7.25;;
18520;SDS011;9390;51.244;6.982;2023-04-24T14:19:17;12.57;;;2.53;;
18520;SDS011;9390;51.244;6.982;2023-04-24T14:21:49;73.22;;;7.40;;
18520;SDS011;9390;51.244;6.982;2023-04-24T14:24:21;9.18;;;2.55;;
18520;SDS011;9390;51.244;6.982;2023-04-24T14:26:52;5.75;;;2.38;;
18520;SDS011;9390;51.244;6.982;2023-04-24T14:29:24;6.15;;;2.10;;
18520;SDS011;9390;51.244;6.982;2023-04-24T14:31:55;7.88;;;2.63;;
18520;SDS011;9390;51.244;6.982;2023-04-24T14:34:27;4.97;;;1.60;;
18520;SDS011;9390;51.244;6.982;2023-04-24T14:36:59;6.13;;;2.25;;
18520;SDS011;9390;51.244;6.982;2023-04-24T14:39:31;3.38;;;1.27;;
18520;SDS011;9390;51.244;6.982;2023-04-24T14:42:02;9.20;;;2.28;;
18520;SDS011;9390;51.244;6.982;2023-04-24T14:44:34;6.53;;;2.90;;
18520;SDS011;9390;51.244;6.982;2023-04-24T14:47:05;5.88;;;1.70;;
18520;SDS011;9390;51.244;6.982;2023-04-24T14:49:37;9.07;;;2.30;;
18520;SDS011;9390;51.244;6.982;2023-04-24T14:52:10;3.70;;;1.60;;
18520;SDS011;9390;51.244;6.982;2023-04-24T14:54:42;4.70;;;1.77;;
18520;SDS011;9390;51.244;6.982;2023-04-24T14:57:13;4.53;;;1.55;;
18520;SDS011;9390;51.244;6.982;2023-04-24T14:59:44;4.75;;;1.60;;
18520;SDS011;9390;51.244;6.982;2023-04-24T15:02:16;8.80;;;2.00;;
18520;SDS011;9390;51.244;6.982;2023-04-24T15:04:47;6.63;;;2.50;;
18520;SDS011;9390;51.244;6.982;2023-04-24T15:07:20;6.68;;;3.17;;
18520;SDS011;9390;51.244;6.982;2023-04-24T15:09:51;7.25;;;2.25;;
18520;SDS011;9390;51.244;6.982;2023-04-24T15:12:23;4.57;;;1.88;;
18520;SDS011;9390;51.244;6.982;2023-04-24T15:14:54;5.80;;;1.63;;
18520;SDS011;9390;51.244;6.982;2023-04-24T15:17:26;2.58;;;1.73;;
18520;SDS011;9390;51.244;6.982;2023-04-24T15:19:57;18.77;;;3.97;;
18520;SDS011;9390;51.244;6.982;2023-04-24T15:22:30;8.65;;;1.60;;
18520;SDS011;9390;51.244;6.982;2023-04-24T15:25:02;5.07;;;1.48;;
18520;SDS011;9390;51.244;6.982;2023-04-24T15:27:40;5.18;;;1.63;;
18520;SDS011;9390;51.244;6.982;2023-04-24T15:30:13;10.63;;;1.88;;